Time;durP1;ratioP1;P1;durP2;ratioP2;P2;SDS_P1;SDS_P2;PMS_P1;PMS_P2;Temp;Humidity;BMP_temperature;BMP_pressure;BME280_temperature;BME280_humidity;BME280_pressure;Samples;Min_cycle;Max_cycle;Signal;HPM_P1;HPM_P2
2023/07/24 00:02:05;;;;;;;5.13;3.03;;;;;;;17.91;100.00;129402.72;4895609;29;20154;-73
2023/07/24 00:04:31;;;;;;;4.55;2.78;;;;;;;17.90;100.00;129043.31;4895427;29;20040;-74
2023/07/24 00:06:57;;;;;;;4.82;2.83;;;;;;;17.90;100.00;129043.31;4888050;29;20032;-74
2023/07/24 00:09:23;;;;;;;3.87;3.23;;;;;;;17.93;100.00;128691.47;4911810;29;20032;-73
2023/07/24 00:11:48;;;;;;;4.53;3.17;;;;;;;17.89;100.00;127611.38;4902269;29;20398;-74
2023/07/24 00:14:16;;;;;;;3.27;2.97;;;;;;;17.93;100.00;126905.72;4913670;29;20036;-73
2023/07/24 00:16:41;;;;;;;5.53;3.60;;;;;;;17.89;100.00;126540.22;4913981;29;20060;-74
2023/07/24 00:19:08;;;;;;;5.20;3.00;;;;;;;17.82;100.00;125097.78;4912598;29;20059;-73
2023/07/24 00:21:35;;;;;;;8.30;3.45;;;;;;;17.78;100.00;121879.25;4914136;29;20063;-74
2023/07/24 00:24:00;;;;;;;;;;;;;;;17.81;100.00;116541.34;4897026;29;20042;-73
2023/07/24 00:26:26;;;;;;;5.53;3.00;;;;;;;17.79;100.00;114756.44;4898740;29;20213;-73
2023/07/24 00:28:51;;;;;;;8.10;3.20;;;;;;;17.76;100.00;112615.78;4912331;29;20036;-73
2023/07/24 00:31:16;;;;;;;7.97;3.73;;;;;;;17.79;100.00;109421.91;4899830;29;20023;-73
2023/07/24 00:33:42;;;;;;;4.67;3.47;;;;;;;17.76;100.00;106928.13;4893814;29;20032;-73
2023/07/24 00:36:07;;;;;;;5.03;3.60;;;;;;;17.75;100.00;104086.41;4913627;29;20039;-74
2023/07/24 00:38:33;;;;;;;5.67;3.13;;;;;;;17.73;100.00;103018.16;4911987;29;20040;-74
2023/07/24 00:40:58;;;;;;;6.13;3.80;;;;;;;17.70;100.00;100175.13;4914722;29;20079;-74
2023/07/24 00:43:24;;;;;;;5.00;3.53;;;;;;;17.75;100.00;99118.88;4895085;29;20522;-73
2023/07/24 00:45:49;;;;;;;7.13;3.50;;;;;;;17.78;100.00;99833.84;4894174;29;20036;-74
2023/07/24 00:48:15;;;;;;;4.37;3.70;;;;;;;17.82;100.00;100904.63;4915698;29;20083;-73
2023/07/24 00:50:43;;;;;;;3.93;3.63;;;;;;;17.76;100.00;101603.16;4913430;29;20031;-74
2023/07/24 00:53:08;;;;;;;7.90;4.10;;;;;;;17.78;100.00;99124.66;4898981;29;20646;-74
2023/07/24 00:55:35;;;;;;;6.83;3.43;;;;;;;17.77;100.00;99123.03;4915861;29;20032;-74
2023/07/24 00:58:02;;;;;;;5.35;3.78;;;;;;;17.76;100.00;98411.53;4916928;29;20036;-74
2023/07/24 01:00:28;;;;;;;4.20;3.40;;;;;;;17.76;100.00;98411.53;4917552;29;20036;-74
2023/07/24 01:02:55;;;;;;;5.50;3.67;;;;;;;17.80;100.00;100191.00;4919202;29;20063;-73
2023/07/24 01:05:24;;;;;;;7.18;3.15;;;;;;;17.77;100.00;103024.19;4915528;29;20047;-74
2023/07/24 01:07:50;;;;;;;4.38;3.45;;;;;;;17.75;100.00;105505.66;4904910;29;20024;-74
2023/07/24 01:10:16;;;;;;;3.92;3.30;;;;;;;17.77;100.00;107641.31;4911826;29;20493;-74
2023/07/24 01:12:41;;;;;;;7.77;3.93;;;;;;;17.75;100.00;111547.81;4917496;29;20032;-74
2023/07/24 01:15:16;;;;;;;5.80;3.47;;;;;;;17.72;100.00;115455.84;4915826;29;20032;-73
2023/07/24 01:17:58;;;;;;;5.03;3.97;;;;;;;17.70;100.00;120080.84;4917105;29;20454;-74
2023/07/24 01:20:26;;;;;;;7.10;3.72;;;;;;;17.67;100.00;122927.47;4913695;29;20027;-73
2023/07/24 01:23:10;;;;;;;6.55;3.97;;;;;;;17.67;100.00;129708.00;4917082;29;20412;-74
2023/07/24 01:25:57;;;;;;;4.80;3.50;;;;;;;17.64;100.00;133989.56;4915427;29;20281;-74
2023/07/24 01:28:22;;;;;;;4.30;3.80;;;;;;;17.65;100.00;137925.28;4914746;29;20032;-73
2023/07/24 01:30:48;;;;;;;5.03;4.03;;;;;;;17.68;100.00;144021.91;4917688;29;20103;-73
2023/07/24 01:33:14;;;;;;;8.70;4.50;;;;;;;17.67;100.00;150972.22;4898206;29;20032;-73
2023/07/24 01:35:43;;;;;;;15.27;4.30;;;;;;;17.69;100.00;153599.34;4916669;29;20028;-74
2023/07/24 01:38:11;;;;;;;4.38;3.97;;;;;;;17.69;100.00;155864.88;4913358;29;20038;-75
2023/07/24 01:40:39;;;;;;;6.20;4.47;;;;;;;17.67;100.00;155859.69;4915264;29;20027;-74
2023/07/24 01:43:05;;;;;;;5.88;3.97;;;;;;;17.69;100.00;155864.88;4915038;29;20032;-74
2023/07/24 01:45:31;;;;;;;6.20;3.70;;;;;;;17.72;100.00;155872.72;4915296;29;20032;-74
2023/07/24 01:47:57;;;;;;;9.70;4.72;;;;;;;17.70;100.00;155867.47;4911998;29;20438;-74
2023/07/24 01:50:22;;;;;;;8.50;4.60;;;;;;;17.69;100.00;155864.88;4914609;29;20036;-74
2023/07/24 01:52:48;;;;;;;9.13;4.20;;;;;;;17.66;100.00;155858.38;4913833;29;20038;-74
2023/07/24 01:55:13;;;;;;;5.23;3.90;;;;;;;17.74;100.00;155879.22;4914506;29;20047;-74
2023/07/24 01:57:38;;;;;;;6.60;3.83;;;;;;;17.70;100.00;155867.47;4915560;29;20032;-73
2023/07/24 02:00:05;;;;;;;9.13;3.43;;;;;;;17.69;100.00;155866.22;4913560;29;20496;-74
2023/07/24 02:02:31;;;;;;;6.47;4.13;;;;;;;17.69;100.00;155866.22;4913217;29;20051;-73
2023/07/24 02:04:56;;;;;;;7.53;4.07;;;;;;;17.71;100.00;155871.41;4915897;29;20066;-73
2023/07/24 02:07:22;;;;;;;6.50;4.17;;;;;;;17.68;100.00;155863.63;4913215;29;20417;-74
2023/07/24 02:09:47;;;;;;;6.73;4.07;;;;;;;17.70;100.00;155867.47;4917849;29;20095;-74
2023/07/24 02:12:13;;;;;;;4.97;4.40;;;;;;;17.73;100.00;155875.31;4914556;29;20042;-73
2023/07/24 02:14:38;;;;;;;4.90;4.27;;;;;;;17.71;100.00;155870.13;4914223;29;20040;-74
2023/07/24 02:17:04;;;;;;;6.57;3.70;;;;;;;17.71;100.00;155870.13;4913532;29;20533;-73
2023/07/24 02:19:29;;;;;;;6.80;3.87;;;;;;;17.62;100.00;155847.94;4912927;29;20042;-73
2023/07/24 02:21:54;;;;;;;6.73;4.30;;;;;;;17.65;100.00;155854.47;4915968;29;20424;-73
2023/07/24 02:24:20;;;;;;;6.43;3.77;;;;;;;17.60;100.00;154755.06;4900695;29;20159;-73
2023/07/24 02:26:45;;;;;;;5.23;3.97;;;;;;;17.63;100.00;152747.75;4898227;29;20087;-73
2023/07/24 02:29:11;;;;;;;7.60;4.17;;;;;;;17.61;100.00;151921.94;4914303;29;20036;-73
2023/07/24 02:31:36;;;;;;;7.20;4.03;;;;;;;17.57;100.00;149328.03;4914978;29;20040;-74
2023/07/24 02:34:01;;;;;;;20.47;4.83;;;;;;;17.53;100.00;145418.13;4898425;29;20094;-74
2023/07/24 02:36:27;;;;;;;5.17;4.03;;;;;;;17.60;100.00;140777.47;4898397;29;20043;-75
2023/07/24 02:38:52;;;;;;;4.80;3.77;;;;;;;17.57;100.00;140054.34;4914306;29;20127;-73
2023/07/24 02:41:18;;;;;;;8.57;4.60;;;;;;;17.56;100.00;141126.13;4901215;29;20126;-73
2023/07/24 02:43:43;;;;;;;4.33;3.90;;;;;;;17.57;100.00;143635.91;4914965;29;20028;-73
2023/07/24 02:46:09;;;;;;;6.93;5.00;;;;;;;17.57;100.00;148649.72;4898770;29;20040;-74
2023/07/24 02:48:34;;;;;;;10.80;4.43;;;;;;;17.54;100.00;150703.94;4897992;29;20187;-72
2023/07/24 02:51:00;;;;;;;5.77;4.13;;;;;;;17.53;100.00;151238.53;4914618;29;20102;-72
2023/07/24 02:53:25;;;;;;;8.17;4.10;;;;;;;17.51;100.00;152306.06;4897835;29;20100;-73
2023/07/24 02:55:51;;;;;;;6.20;4.37;;;;;;;17.51;100.00;155818.03;4913165;29;20036;-72
2023/07/24 02:58:16;;;;;;;7.53;4.33;;;;;;;17.48;100.00;155811.53;4898988;29;20503;-72
2023/07/24 03:00:41;;;;;;;7.90;4.27;;;;;;;17.44;100.00;155801.09;4915052;29;20112;-72
2023/07/24 03:03:07;;;;;;;8.90;4.53;;;;;;;17.47;100.00;155807.63;4914297;29;20452;-72
2023/07/24 03:05:35;;;;;;;5.43;4.07;;;;;;;17.44;100.00;155801.09;4913633;29;20383;-72
2023/07/24 03:08:01;;;;;;;5.00;4.07;;;;;;;17.44;100.00;155801.09;4912185;29;20087;-73
2023/07/24 03:10:26;;;;;;;5.37;4.17;;;;;;;17.41;100.00;155792.00;4913761;29;20032;-72
2023/07/24 03:12:52;;;;;;;9.30;4.43;;;;;;;17.39;100.00;155786.81;4897491;29;20115;-73
2023/07/24 03:15:17;;;;;;;6.20;4.10;;;;;;;17.42;100.00;155795.91;4915159;29;20024;-72
2023/07/24 03:17:42;;;;;;;5.53;4.50;;;;;;;17.40;100.00;155789.41;4896975;29;20138;-73
2023/07/24 03:20:10;;;;;;;6.20;4.30;;;;;;;17.43;100.00;155797.19;4897368;29;20024;-72
2023/07/24 03:22:35;;;;;;;5.18;4.60;;;;;;;17.37;100.00;155782.84;4914462;29;20409;-72
2023/07/24 03:25:01;;;;;;;4.97;3.90;;;;;;;17.32;100.00;155769.84;4899850;29;20040;-73
2023/07/24 03:27:26;;;;;;;7.30;4.83;;;;;;;17.29;100.00;155760.72;4913368;29;20035;-72
2023/07/24 03:29:52;;;;;;;7.50;4.90;;;;;;;17.29;100.00;155762.00;4914075;29;20123;-72
2023/07/24 03:32:18;;;;;;;7.70;5.20;;;;;;;17.27;100.00;155756.81;4893777;29;20068;-72
2023/07/24 03:34:44;;;;;;;6.63;5.07;;;;;;;17.20;100.00;155738.59;4897164;29;20481;-72
2023/07/24 03:37:09;;;;;;;6.60;5.20;;;;;;;17.20;100.00;155737.28;4913231;29;20036;-73
2023/07/24 03:39:35;;;;;;;7.33;5.20;;;;;;;17.16;100.00;155726.88;4896025;29;20040;-73
2023/07/24 03:42:02;;;;;;;9.60;5.43;;;;;;;17.15;100.00;155725.59;4914221;29;20094;-73
2023/07/24 03:44:28;;;;;;;8.73;5.72;;;;;;;17.15;100.00;155724.28;4911217;29;20381;-73
2023/07/24 03:46:54;;;;;;;7.63;5.88;;;;;;;17.13;100.00;155720.34;4912958;29;20060;-73
2023/07/24 03:49:19;;;;;;;9.53;6.30;;;;;;;17.06;100.00;155700.84;4911482;29;20040;-72
2023/07/24 03:51:46;;;;;;;6.60;5.60;;;;;;;17.02;100.00;155690.47;4897426;29;20059;-73
2023/07/24 03:54:11;;;;;;;8.35;6.45;;;;;;;17.01;100.00;155687.81;4913610;29;20094;-73
2023/07/24 03:56:36;;;;;;;7.20;5.83;;;;;;;17.02;100.00;155691.72;4914533;29;20461;-72
2023/07/24 03:59:02;;;;;;;7.30;6.47;;;;;;;17.02;100.00;155690.47;4912307;29;20055;-73
2023/07/24 04:01:27;;;;;;;8.70;7.17;;;;;;;17.00;100.00;155685.22;4913471;29;20116;-73
2023/07/24 04:03:53;;;;;;;10.67;7.23;;;;;;;16.98;100.00;155680.03;4914451;29;20055;-73
2023/07/24 04:06:18;;;;;;;16.60;7.20;;;;;;;16.96;100.00;155676.13;4912682;29;20039;-72
2023/07/24 04:08:44;;;;;;;10.90;7.37;;;;;;;16.97;100.00;155677.44;4910257;29;20036;-73
2023/07/24 04:11:09;;;;;;;9.63;8.07;;;;;;;16.96;100.00;155676.13;4913096;29;20400;-73
2023/07/24 04:13:34;;;;;;;12.47;7.10;;;;;;;16.95;100.00;155673.53;4912258;29;20079;-73
2023/07/24 04:16:00;;;;;;;9.80;7.10;;;;;;;16.94;100.00;155669.63;4914706;29;20039;-73
2023/07/24 04:18:25;;;;;;;14.77;7.87;;;;;;;16.98;100.00;155680.03;4894631;29;20055;-73
2023/07/24 04:20:51;;;;;;;14.67;8.27;;;;;;;16.94;100.00;155670.94;4894641;29;20044;-72
2023/07/24 04:23:16;;;;;;;11.83;7.30;;;;;;;16.98;100.00;155680.03;4909630;29;20159;-72
2023/07/24 04:25:41;;;;;;;15.60;8.73;;;;;;;16.97;100.00;155677.44;4915466;29;20039;-73
2023/07/24 04:28:08;;;;;;;14.60;8.23;;;;;;;16.92;100.00;155665.69;4916311;29;20160;-73
2023/07/24 04:30:33;;;;;;;15.63;8.48;;;;;;;16.95;100.00;155672.22;4929862;29;20035;-72
2023/07/24 04:32:59;;;;;;;12.43;8.53;;;;;;;16.95;100.00;155673.53;4915506;29;20031;-73
2023/07/24 04:35:26;;;;;;;16.97;9.33;;;;;;;16.93;100.00;155668.34;4915705;29;20035;-73
2023/07/24 04:37:52;;;;;;;13.55;8.65;;;;;;;16.97;100.00;155677.44;4915410;29;20036;-73
2023/07/24 04:40:17;;;;;;;11.30;8.57;;;;;;;16.99;100.00;155682.63;4919914;29;20027;-72
2023/07/24 04:42:43;;;;;;;13.87;9.17;;;;;;;16.99;100.00;155682.63;4912583;29;20028;-73
2023/07/24 04:45:09;;;;;;;17.40;9.67;;;;;;;17.02;100.00;155691.72;4917375;29;20485;-72
2023/07/24 04:47:36;;;;;;;15.45;8.95;;;;;;;17.02;100.00;155690.47;4917205;29;20035;-72
2023/07/24 04:50:02;;;;;;;16.83;9.13;;;;;;;17.06;100.00;155700.84;4917429;29;20539;-73
2023/07/24 04:52:27;;;;;;;13.20;8.80;;;;;;;17.06;100.00;155702.16;4914930;29;20032;-72
2023/07/24 04:54:53;;;;;;;15.67;9.50;;;;;;;17.07;100.00;155704.75;4917924;29;20032;-72
2023/07/24 04:57:18;;;;;;;15.57;9.80;;;;;;;17.08;100.00;155706.06;4915972;29;20028;-72
2023/07/24 04:59:44;;;;;;;13.97;9.37;;;;;;;17.14;100.00;155722.94;4916906;29;20028;-71
2023/07/24 05:02:10;;;;;;;16.30;9.43;;;;;;;17.20;100.00;155737.28;4911595;29;20091;-72
2023/07/24 05:04:36;;;;;;;18.10;11.02;;;;;;;17.22;100.00;155742.47;4908964;29;20124;-72
2023/07/24 05:07:02;;;;;;;14.13;9.13;;;;;;;17.23;100.00;155746.38;4912598;29;20111;-72
2023/07/24 05:09:27;;;;;;;15.37;8.97;;;;;;;17.26;100.00;155754.22;4914422;29;20301;-72
2023/07/24 05:11:52;;;;;;;13.87;9.37;;;;;;;17.29;100.00;155760.72;4914565;29;20072;-73
2023/07/24 05:14:18;;;;;;;18.97;10.00;;;;;;;17.34;100.00;155773.75;4914268;29;20028;-73
2023/07/24 05:16:43;;;;;;;14.73;10.10;;;;;;;17.37;100.00;155781.53;4917410;29;20492;-73
2023/07/24 05:19:10;;;;;;;15.80;10.20;;;;;;;17.34;100.00;155773.75;4915026;29;20046;-72
2023/07/24 05:21:35;;;;;;;;;;;;;;;17.39;100.00;155786.81;4927146;29;20024;-73
2023/07/24 05:24:01;;;;;;;14.93;9.93;;;;;;;17.37;100.00;155782.84;4934104;29;20387;-73
2023/07/24 05:26:26;;;;;;;18.73;9.57;;;;;;;17.40;100.00;155789.41;4919544;29;20027;-73
2023/07/24 05:28:53;;;;;;;12.60;9.77;;;;;;;17.47;100.00;155808.94;4934799;29;20035;-72
2023/07/24 05:31:20;;;;;;;15.10;9.48;;;;;;;17.53;100.00;155823.22;4935317;29;20019;-72
2023/07/24 05:33:45;;;;;;;13.47;9.47;;;;;;;17.55;100.00;155828.47;4933127;29;20473;-73
2023/07/24 05:36:12;;;;;;;18.50;9.93;;;;;;;17.55;100.00;155829.75;4936687;29;20046;-73
2023/07/24 05:38:38;;;;;;;18.75;10.07;;;;;;;17.52;100.00;155821.97;4934499;29;20039;-73
2023/07/24 05:41:04;;;;;;;15.23;10.30;;;;;;;17.56;100.00;155831.06;4935341;29;20046;-73
2023/07/24 05:43:31;;;;;;;16.57;9.63;;;;;;;17.52;100.00;155821.97;4934264;29;20066;-72
2023/07/24 05:45:57;;;;;;;21.88;12.20;;;;;;;17.48;100.00;155811.53;4917845;29;20302;-73
2023/07/24 05:48:23;;;;;;;21.35;11.63;;;;;;;17.43;100.00;155798.50;4933023;29;20106;-72
2023/07/24 05:50:49;;;;;;;15.82;10.73;;;;;;;17.42;100.00;155794.59;4935341;29;20511;-73
2023/07/24 05:53:15;;;;;;;18.63;10.77;;;;;;;17.54;100.00;155825.81;4931499;29;20074;-73
2023/07/24 05:55:42;;;;;;;22.45;10.38;;;;;;;17.67;100.00;155859.69;4918124;29;20071;-73
2023/07/24 05:58:09;;;;;;;17.77;11.50;;;;;;;17.82;100.00;155900.03;4933359;29;20019;-72
2023/07/24 06:00:36;;;;;;;20.88;11.13;;;;;;;17.87;100.00;155911.78;4916007;29;20110;-73
2023/07/24 06:03:02;;;;;;;19.23;10.40;;;;;;;18.07;100.00;155963.84;4932345;29;20082;-73
2023/07/24 06:05:27;;;;;;;17.98;9.98;;;;;;;19.34;100.00;156294.88;4935160;29;20031;-73
2023/07/24 06:07:54;;;;;;;15.60;9.00;;;;;;;19.20;100.00;156259.63;4930682;29;20040;-73
2023/07/24 06:10:20;;;;;;;14.52;8.93;;;;;;;20.21;100.00;156521.78;4938999;29;20415;-73
2023/07/24 06:12:47;;;;;;;14.77;8.53;;;;;;;21.04;97.50;156738.44;4912263;29;20038;-73
2023/07/24 06:15:14;;;;;;;10.18;7.63;;;;;;;20.92;94.46;156707.13;4932926;29;20461;-73
2023/07/24 06:17:39;;;;;;;14.02;7.25;;;;;;;20.23;95.79;156527.03;4932995;29;20050;-73
2023/07/24 06:20:06;;;;;;;13.57;8.20;;;;;;;19.89;97.54;156438.28;4933041;29;20059;-73
2023/07/24 06:22:32;;;;;;;14.15;7.63;;;;;;;19.40;100.00;156311.81;4913124;29;20056;-72
2023/07/24 06:24:59;;;;;;;15.23;8.17;;;;;;;19.15;100.00;156245.31;4929137;29;20098;-73
2023/07/24 06:27:25;;;;;;;14.57;8.30;;;;;;;19.07;100.00;156224.44;4914972;29;20047;-73
2023/07/24 06:29:50;;;;;;;20.27;7.80;;;;;;;19.19;100.00;156255.72;4914657;29;20531;-73
2023/07/24 06:32:15;;;;;;;12.27;7.67;;;;;;;19.39;100.00;156307.91;4919928;29;20070;-72
2023/07/24 06:34:41;;;;;;;17.87;8.10;;;;;;;19.21;100.00;156262.28;4933868;29;20485;-73
2023/07/24 06:37:06;;;;;;;21.73;8.77;;;;;;;18.88;100.00;156174.94;4924416;29;20057;-73
2023/07/24 06:39:33;;;;;;;10.93;7.63;;;;;;;18.68;100.00;156124.09;4927480;29;20074;-73
2023/07/24 06:41:59;;;;;;;14.02;8.43;;;;;;;18.59;100.00;156099.34;4931800;29;20028;-74
2023/07/24 06:44:24;;;;;;;14.37;8.80;;;;;;;18.49;100.00;156074.63;4929806;29;20039;-73
2023/07/24 06:46:49;;;;;;;18.13;8.90;;;;;;;18.34;100.00;156035.53;4928351;29;20345;-73
2023/07/24 06:49:15;;;;;;;16.33;8.73;;;;;;;18.22;100.00;156002.91;4926168;29;20043;-74
2023/07/24 06:51:40;;;;;;;14.97;9.20;;;;;;;18.11;100.00;155974.25;4930236;29;20038;-73
2023/07/24 06:54:06;;;;;;;17.60;8.77;;;;;;;18.03;100.00;155954.72;4917102;29;20028;-73
2023/07/24 06:56:32;;;;;;;14.17;8.80;;;;;;;17.97;100.00;155939.09;4914904;29;20484;-73
2023/07/24 06:58:57;;;;;;;16.30;8.88;;;;;;;17.99;100.00;155943.03;4932206;29;20032;-73
2023/07/24 07:01:22;;;;;;;20.77;9.90;;;;;;;18.01;100.00;155948.22;4933206;29;20043;-73
2023/07/24 07:03:48;;;;;;;13.67;9.37;;;;;;;18.02;100.00;155952.13;4934528;29;20476;-73
2023/07/24 07:06:13;;;;;;;13.23;9.10;;;;;;;18.00;100.00;155946.94;4915336;29;20043;-73
2023/07/24 07:08:39;;;;;;;15.90;9.37;;;;;;;18.04;100.00;155957.31;4929917;29;20035;-72
2023/07/24 07:11:04;;;;;;;13.83;9.43;;;;;;;18.11;100.00;155974.25;4932230;29;20043;-72
2023/07/24 07:13:30;;;;;;;16.00;9.60;;;;;;;18.11;100.00;155974.25;4913806;29;20130;-72
2023/07/24 07:15:55;;;;;;;15.23;9.57;;;;;;;18.20;100.00;155997.72;4913129;29;20498;-73
2023/07/24 07:18:20;;;;;;;16.17;8.83;;;;;;;18.21;100.00;156000.31;4915891;29;20035;-72
2023/07/24 07:20:47;;;;;;;14.70;8.83;;;;;;;18.45;100.00;156062.84;4934944;29;20027;-73
2023/07/24 07:23:13;;;;;;;13.55;9.25;;;;;;;18.66;100.00;156118.91;4923274;29;20040;-73
2023/07/24 07:25:38;;;;;;;16.53;10.13;;;;;;;18.96;100.00;156195.78;4918687;29;20115;-73
2023/07/24 07:28:04;;;;;;;12.27;9.00;;;;;;;19.28;100.00;156280.56;4908118;29;20465;-73
2023/07/24 07:30:29;;;;;;;12.27;8.63;;;;;;;19.87;100.00;156434.41;4898453;29;20087;-73
2023/07/24 07:32:58;;;;;;;17.27;8.90;;;;;;;20.55;99.77;156610.53;4911910;29;20032;-73
2023/07/24 07:35:23;;;;;;;12.43;8.35;;;;;;;20.63;96.98;156632.69;4915788;29;20035;-73
2023/07/24 07:37:49;;;;;;;15.70;8.23;;;;;;;20.46;95.33;156587.03;4900890;29;20028;-72
2023/07/24 07:40:14;;;;;;;14.10;7.57;;;;;;;20.94;94.28;156712.34;4913948;29;20058;-73
2023/07/24 07:42:39;;;;;;;15.33;6.93;;;;;;;20.52;93.62;156602.69;4900042;29;20110;-73
2023/07/24 07:45:05;;;;;;;12.77;6.77;;;;;;;20.21;93.97;156521.78;4915324;29;20088;-73
2023/07/24 07:47:31;;;;;;;15.18;8.48;;;;;;;19.93;94.88;156450.03;4915210;29;20028;-73
2023/07/24 07:49:56;;;;;;;19.73;8.30;;;;;;;20.12;95.12;156498.34;4915205;29;20040;-73
2023/07/24 07:52:22;;;;;;;9.67;7.70;;;;;;;20.29;93.43;156542.69;4897955;29;20039;-73
2023/07/24 07:54:50;;;;;;;15.88;9.32;;;;;;;20.26;93.25;156534.84;4915277;29;20030;-73
2023/07/24 07:57:16;;;;;;;19.33;8.60;;;;;;;20.15;93.02;156506.13;4916814;29;20476;-73
2023/07/24 07:59:41;;;;;;;20.77;8.33;;;;;;;19.92;93.02;156447.44;4918711;29;20034;-72
2023/07/24 08:02:08;;;;;;;21.53;8.40;;;;;;;19.55;93.38;156349.63;4916238;29;20342;-72
2023/07/24 08:04:33;;;;;;;11.85;7.55;;;;;;;19.32;94.53;156290.94;4916616;29;20445;-73
2023/07/24 08:06:58;;;;;;;14.87;7.70;;;;;;;19.41;95.99;156314.44;4906095;29;20032;-73
2023/07/24 08:09:24;;;;;;;15.27;7.47;;;;;;;19.84;95.78;156425.28;4899730;29;20084;-73
2023/07/24 08:11:51;;;;;;;13.77;7.83;;;;;;;19.84;95.02;156426.56;4917901;29;20040;-73
2023/07/24 08:14:17;;;;;;;14.52;7.50;;;;;;;19.86;94.72;156430.47;4915690;29;20480;-73
2023/07/24 08:16:42;;;;;;;13.68;6.57;;;;;;;19.70;94.75;156390.03;4915592;29;20079;-73
2023/07/24 08:19:08;;;;;;;13.43;7.13;;;;;;;19.61;94.85;156365.25;4918552;29;20032;-73
2023/07/24 08:21:34;;;;;;;;;;;;;;;19.48;94.91;156332.66;4917260;29;20459;-73
2023/07/24 08:24:01;;;;;;;13.95;6.43;;;;;;;19.42;95.40;156317.03;4933818;29;19919;-73
2023/07/24 08:26:27;;;;;;;17.08;6.35;;;;;;;19.31;95.23;156287.06;4937791;29;20050;-73
2023/07/24 08:28:53;;;;;;;10.60;6.67;;;;;;;19.19;95.61;156257.03;4925589;29;20118;-73
2023/07/24 08:31:18;;;;;;;14.63;7.20;;;;;;;19.19;96.29;156257.03;4936460;29;20111;-73
2023/07/24 08:33:43;;;;;;;14.33;6.33;;;;;;;19.11;96.02;156236.16;4917977;29;20280;-73
2023/07/24 08:36:11;;;;;;;17.37;7.83;;;;;;;19.14;96.27;156244.00;4936435;29;20107;-73
2023/07/24 08:38:36;;;;;;;13.75;6.88;;;;;;;19.27;96.21;156276.63;4916819;29;20115;-73
2023/07/24 08:41:11;;;;;;;11.63;7.03;;;;;;;19.28;95.67;156279.22;4930410;29;20444;-74
2023/07/24 08:43:39;;;;;;;21.58;7.70;;;;;;;19.19;95.40;156255.72;4932412;29;20032;-73
2023/07/24 08:46:05;;;;;;;14.50;7.88;;;;;;;19.19;95.58;156257.03;4933498;29;20039;-73
2023/07/24 08:48:38;;;;;;;13.38;7.35;;;;;;;19.23;95.56;156267.53;4935885;29;20039;-73
2023/07/24 08:51:06;;;;;;;12.23;6.53;;;;;;;19.34;95.51;156296.19;4937148;29;20502;-73
2023/07/24 08:53:37;;;;;;;14.65;7.38;;;;;;;19.28;95.37;156280.56;4938380;29;20388;-74
2023/07/24 08:56:06;;;;;;;14.48;7.35;;;;;;;19.24;94.72;156268.78;4935361;29;20444;-73
2023/07/24 08:58:32;;;;;;;10.75;6.60;;;;;;;19.29;94.74;156283.16;4918203;29;20031;-73
2023/07/24 09:00:59;;;;;;;15.25;7.53;;;;;;;19.24;93.79;156268.78;4917149;29;20054;-74
2023/07/24 09:03:25;;;;;;;11.05;6.97;;;;;;;19.31;93.22;156287.06;4932760;29;20040;-73
2023/07/24 09:05:51;;;;;;;15.20;6.75;;;;;;;19.44;93.40;156320.94;4936617;29;20038;-73
2023/07/24 09:08:27;;;;;;;14.30;7.50;;;;;;;19.48;92.57;156331.38;4932932;29;20047;-73
2023/07/24 09:10:53;;;;;;;11.77;6.78;;;;;;;19.53;92.48;156344.44;4935920;29;20373;-73
2023/07/24 09:13:19;;;;;;;12.30;7.40;;;;;;;19.71;91.78;156391.34;4929040;29;20031;-72
2023/07/24 09:15:44;;;;;;;16.63;7.77;;;;;;;19.61;91.34;156366.59;4931363;29;20027;-73
2023/07/24 09:18:10;;;;;;;12.90;6.80;;;;;;;19.59;91.72;156360.06;4933385;29;20337;-73
2023/07/24 09:20:40;;;;;;;16.20;7.10;;;;;;;19.59;91.23;156360.06;4917966;29;20045;-73
2023/07/24 09:23:07;;;;;;;12.40;6.25;;;;;;;19.73;91.34;156396.53;4912264;29;20578;-73
2023/07/24 09:25:34;;;;;;;14.90;6.55;;;;;;;19.85;91.51;156427.88;4934531;29;20090;-73
2023/07/24 09:28:00;;;;;;;14.50;6.85;;;;;;;19.75;90.73;156401.78;4911612;29;20028;-73
2023/07/24 09:30:26;;;;;;;14.77;6.60;;;;;;;19.83;91.68;156422.63;4915015;29;20036;-73
2023/07/24 09:32:52;;;;;;;10.43;6.53;;;;;;;19.86;92.16;156430.47;4920712;29;20168;-73
2023/07/24 09:35:19;;;;;;;18.23;6.78;;;;;;;20.07;93.08;156485.31;4931552;29;20035;-73
2023/07/24 09:37:45;;;;;;;18.55;7.40;;;;;;;20.17;94.44;156511.38;4929993;29;20039;-73
2023/07/24 09:40:13;;;;;;;12.32;7.30;;;;;;;20.18;93.25;156515.25;4930863;29;20539;-73
2023/07/24 09:42:39;;;;;;;13.70;6.25;;;;;;;20.07;92.98;156485.31;4917680;29;20066;-73
2023/07/24 09:45:08;;;;;;;12.38;6.95;;;;;;;20.03;92.06;156476.13;4931440;29;20031;-72
2023/07/24 09:47:38;;;;;;;18.13;6.95;;;;;;;20.43;91.87;156579.22;4930660;29;20027;-73
2023/07/24 09:50:04;;;;;;;13.88;6.38;;;;;;;20.37;88.83;156564.84;4933868;29;20501;-73
2023/07/24 09:52:30;;;;;;;12.95;6.60;;;;;;;20.48;88.78;156592.28;4932519;29;20024;-72
2023/07/24 09:55:09;;;;;;;12.98;6.45;;;;;;;21.04;87.22;156738.44;4931082;29;20480;-72
2023/07/24 09:57:35;;;;;;;13.63;6.50;;;;;;;21.34;86.16;156816.78;4933126;29;20076;-73
2023/07/24 10:00:01;;;;;;;12.30;6.68;;;;;;;21.21;84.81;156782.81;4932125;29;20028;-73
2023/07/24 10:02:28;;;;;;;11.35;6.05;;;;;;;21.14;85.21;156764.56;4912502;29;20122;-73
2023/07/24 10:04:55;;;;;;;12.80;6.10;;;;;;;21.05;85.18;156741.03;4933458;29;20503;-73
2023/07/24 10:07:22;;;;;;;10.80;6.30;;;;;;;20.88;84.37;156697.97;4927417;29;20276;-72
2023/07/24 10:09:49;;;;;;;13.75;5.07;;;;;;;20.83;84.88;156684.91;4933275;29;20047;-73
2023/07/24 10:12:17;;;;;;;14.13;5.68;;;;;;;20.71;85.95;156652.28;4913400;29;20042;-72
2023/07/24 10:14:45;;;;;;;11.35;5.70;;;;;;;20.57;86.14;156617.06;4915224;29;20618;-73
2023/07/24 10:17:10;;;;;;;11.82;5.32;;;;;;;20.50;86.81;156597.47;4915941;29;20477;-72
2023/07/24 10:19:39;;;;;;;14.07;5.47;;;;;;;20.53;86.86;156605.28;4935072;29;20031;-73
2023/07/24 10:22:05;;;;;;;12.63;5.38;;;;;;;20.70;88.48;156650.94;4933633;29;20054;-73
2023/07/24 10:24:30;;;;;;;9.07;4.95;;;;;;;20.99;87.62;156725.38;4915510;29;20547;-73
2023/07/24 10:26:56;;;;;;;9.53;5.33;;;;;;;21.25;85.29;156793.25;4896082;29;20059;-73
2023/07/24 10:29:25;;;;;;;9.77;4.40;;;;;;;20.91;84.68;156704.53;4914480;29;20032;-73
2023/07/24 10:31:55;;;;;;;10.25;5.35;;;;;;;20.62;84.52;156630.09;4914351;29;20043;-73
2023/07/24 10:34:20;;;;;;;12.55;5.30;;;;;;;20.41;84.96;156573.97;4892500;29;20032;-73
2023/07/24 10:36:46;;;;;;;12.20;4.93;;;;;;;20.56;85.34;156614.44;4910874;29;20166;-73
2023/07/24 10:39:16;;;;;;;9.60;5.40;;;;;;;20.77;86.41;156667.94;4888545;29;20075;-74
2023/07/24 10:41:44;;;;;;;10.85;5.43;;;;;;;21.20;85.80;156781.53;4907014;29;20122;-73
2023/07/24 10:44:09;;;;;;;10.25;4.93;;;;;;;21.22;83.68;156785.41;4904076;29;20044;-73
2023/07/24 10:46:37;;;;;;;8.33;4.23;;;;;;;21.28;83.01;156801.13;4907650;29;20036;-75
2023/07/24 10:49:03;;;;;;;12.70;4.90;;;;;;;20.94;83.48;156712.34;4909442;29;20056;-73
2023/07/24 10:51:37;;;;;;;8.83;4.50;;;;;;;20.59;84.45;156620.97;4914401;29;20086;-73
2023/07/24 10:54:04;;;;;;;13.40;5.20;;;;;;;20.65;84.95;156637.91;4913662;29;20032;-73
2023/07/24 10:56:29;;;;;;;9.82;5.20;;;;;;;20.79;84.28;156673.13;4913157;29;20083;-73
2023/07/24 10:58:55;;;;;;;11.20;5.33;;;;;;;20.87;83.49;156695.31;4912405;29;20035;-73
2023/07/24 11:01:20;;;;;;;10.70;5.03;;;;;;;20.91;83.45;156704.53;4914965;29;20063;-73
2023/07/24 11:03:46;;;;;;;14.43;5.70;;;;;;;20.90;84.09;156701.88;4905443;29;20024;-73
2023/07/24 11:06:14;;;;;;;9.50;5.90;;;;;;;20.86;85.88;156691.44;4914385;29;20115;-72
2023/07/24 11:08:40;;;;;;;9.68;5.28;;;;;;;20.57;87.28;156615.72;4913405;29;20088;-73
2023/07/24 11:11:07;;;;;;;9.20;5.95;;;;;;;20.28;88.44;156540.09;4913520;29;20036;-73